sensor_id;sensor_type;location;lat;lon;timestamp;pressure;altitude;pressure_sealevel;temperature;humidity
21658;BME280;10990;48.174;9.782;2023-04-12T00:00:51;93997.38;;;7.58;100.00
21658;BME280;10990;48.174;9.782;2023-04-12T00:03:18;93947.75;;;7.55;100.00
21658;BME280;10990;48.174;9.782;2023-04-12T00:05:46;93900.56;;;7.54;100.00
21658;BME280;10990;48.174;9.782;2023-04-12T00:08:19;93851.06;;;7.57;100.00
21658;BME280;10990;48.174;9.782;2023-04-12T00:10:49;93819.97;;;7.61;100.00
21658;BME280;10990;48.174;9.782;2023-04-12T00:13:16;93780.16;;;7.64;100.00
21658;BME280;10990;48.174;9.782;2023-04-12T00:15:43;93749.53;;;7.48;100.00
21658;BME280;10990;48.174;9.782;2023-04-12T00:18:12;93708.25;;;7.49;100.00
21658;BME280;10990;48.174;9.782;2023-04-12T00:20:38;93653.97;;;7.56;100.00
21658;BME280;10990;48.174;9.782;2023-04-12T00:23:05;93609.59;;;7.53;100.00
21658;BME280;10990;48.174;9.782;2023-04-12T00:25:34;93566.81;;;7.44;100.00
21658;BME280;10990;48.174;9.782;2023-04-12T00:28:00;93517.47;;;7.46;100.00
21658;BME280;10990;48.174;9.782;2023-04-12T00:30:27;93482.00;;;7.42;100.00
21658;BME280;10990;48.174;9.782;2023-04-12T00:32:54;93458.53;;;7.40;100.00
21658;BME280;10990;48.174;9.782;2023-04-12T00:35:25;93430.97;;;7.36;100.00
21658;BME280;10990;48.174;9.782;2023-04-12T00:37:52;93412.81;;;7.41;100.00
21658;BME280;10990;48.174;9.782;2023-04-12T00:40:19;93390.16;;;7.40;100.00
21658;BME280;10990;48.174;9.782;2023-04-12T00:42:46;93368.13;;;7.41;100.00
21658;BME280;10990;48.174;9.782;2023-04-12T00:45:12;93352.63;;;7.32;100.00
21658;BME280;10990;48.174;9.782;2023-04-12T00:47:40;93335.38;;;7.44;100.00
21658;BME280;10990;48.174;9.782;2023-04-12T00:50:13;93316.47;;;7.34;100.00
21658;BME280;10990;48.174;9.782;2023-04-12T00:52:41;93285.81;;;7.41;100.00
21658;BME280;10990;48.174;9.782;2023-04-12T00:55:08;93263.97;;;7.40;100.00
21658;BME280;10990;48.174;9.782;2023-04-12T00:57:37;93251.13;;;7.31;100.00
21658;BME280;10990;48.174;9.782;2023-04-12T01:00:05;93220.19;;;7.33;100.00
21658;BME280;10990;48.174;9.782;2023-04-12T01:02:37;93204.84;;;7.36;100.00
21658;BME280;10990;48.174;9.782;2023-04-12T01:05:06;93195.66;;;7.26;100.00
21658;BME280;10990;48.174;9.782;2023-04-12T01:07:46;93182.06;;;7.15;100.00
21658;BME280;10990;48.174;9.782;2023-04-12T01:10:26;93152.47;;;7.35;100.00
21658;BME280;10990;48.174;9.782;2023-04-12T01:13:03;93154.25;;;7.34;100.00
21658;BME280;10990;48.174;9.782;2023-04-12T01:15:33;93163.50;;;7.24;100.00
21658;BME280;10990;48.174;9.782;2023-04-12T01:18:04;93158.72;;;7.34;100.00
21658;BME280;10990;48.174;9.782;2023-04-12T01:20:37;93154.50;;;7.39;100.00
21658;BME280;10990;48.174;9.782;2023-04-12T01:23:28;93305.31;;;7.32;100.00
21658;BME280;10990;48.174;9.782;2023-04-12T01:26:09;93289.78;;;7.37;100.00
21658;BME280;10990;48.174;9.782;2023-04-12T01:28:41;93284.66;;;7.29;100.00
21658;BME280;10990;48.174;9.782;2023-04-12T01:31:11;93278.22;;;7.31;100.00
21658;BME280;10990;48.174;9.782;2023-04-12T01:33:39;93249.75;;;7.35;100.00
21658;BME280;10990;48.174;9.782;2023-04-12T01:36:10;93244.00;;;7.25;100.00
21658;BME280;10990;48.174;9.782;2023-04-12T01:38:38;93229.03;;;7.25;100.00
21658;BME280;10990;48.174;9.782;2023-04-12T01:41:06;93208.25;;;7.30;100.00
21658;BME280;10990;48.174;9.782;2023-04-12T01:43:39;93192.25;;;7.32;100.00
21658;BME280;10990;48.174;9.782;2023-04-12T01:46:07;93191.03;;;7.28;100.00
21658;BME280;10990;48.174;9.782;2023-04-12T01:48:34;93185.94;;;7.26;100.00
21658;BME280;10990;48.174;9.782;2023-04-12T01:51:04;93178.28;;;7.25;100.00
21658;BME280;10990;48.174;9.782;2023-04-12T01:53:36;93165.75;;;7.27;100.00
21658;BME280;10990;48.174;9.782;2023-04-12T01:56:07;93156.81;;;7.21;100.00
21658;BME280;10990;48.174;9.782;2023-04-12T01:58:35;93153.00;;;7.24;100.00
21658;BME280;10990;48.174;9.782;2023-04-12T02:01:04;93137.22;;;7.24;100.00
21658;BME280;10990;48.174;9.782;2023-04-12T02:03:33;93131.59;;;7.27;100.00
21658;BME280;10990;48.174;9.782;2023-04-12T02:06:02;93132.19;;;7.29;100.00
21658;BME280;10990;48.174;9.782;2023-04-12T02:08:32;93121.63;;;7.22;100.00
21658;BME280;10990;48.174;9.782;2023-04-12T02:10:58;93128.84;;;7.13;100.00
21658;BME280;10990;48.174;9.782;2023-04-12T02:13:25;93112.13;;;7.21;100.00
21658;BME280;10990;48.174;9.782;2023-04-12T02:15:53;93104.84;;;7.23;100.00
21658;BME280;10990;48.174;9.782;2023-04-12T02:18:22;93095.59;;;7.27;100.00
21658;BME280;10990;48.174;9.782;2023-04-12T02:20:49;93089.47;;;7.20;100.00
21658;BME280;10990;48.174;9.782;2023-04-12T02:23:16;93088.66;;;7.19;100.00
21658;BME280;10990;48.174;9.782;2023-04-12T02:25:43;93090.91;;;7.23;100.00
21658;BME280;10990;48.174;9.782;2023-04-12T02:28:11;93087.69;;;7.27;100.00
21658;BME280;10990;48.174;9.782;2023-04-12T02:30:39;93080.19;;;7.24;100.00
21658;BME280;10990;48.174;9.782;2023-04-12T02:33:07;93067.44;;;7.21;100.00
21658;BME280;10990;48.174;9.782;2023-04-12T02:35:36;93052.09;;;7.25;100.00
21658;BME280;10990;48.174;9.782;2023-04-12T02:38:07;93057.31;;;7.18;100.00
21658;BME280;10990;48.174;9.782;2023-04-12T02:40:37;93052.28;;;7.23;100.00
21658;BME280;10990;48.174;9.782;2023-04-12T02:43:06;93052.47;;;7.22;100.00
21658;BME280;10990;48.174;9.782;2023-04-12T02:45:35;93039.97;;;7.24;100.00
21658;BME280;10990;48.174;9.782;2023-04-12T02:48:02;93032.09;;;7.30;100.00
21658;BME280;10990;48.174;9.782;2023-04-12T02:50:31;93023.22;;;7.31;100.00
21658;BME280;10990;48.174;9.782;2023-04-12T02:53:08;93023.22;;;7.31;100.00
21658;BME280;10990;48.174;9.782;2023-04-12T02:55:36;93013.72;;;7.30;100.00
21658;BME280;10990;48.174;9.782;2023-04-12T02:58:05;92944.91;;;7.20;100.00
21658;BME280;10990;48.174;9.782;2023-04-12T03:00:39;92902.44;;;7.23;100.00
21658;BME280;10990;48.174;9.782;2023-04-12T03:03:09;92835.75;;;7.24;100.00
21658;BME280;10990;48.174;9.782;2023-04-12T03:05:36;92819.97;;;7.24;100.00
21658;BME280;10990;48.174;9.782;2023-04-12T03:08:04;92815.94;;;7.22;100.00
21658;BME280;10990;48.174;9.782;2023-04-12T03:10:40;92816.91;;;7.21;100.00
21658;BME280;10990;48.174;9.782;2023-04-12T03:13:07;92803.78;;;7.21;100.00
21658;BME280;10990;48.174;9.782;2023-04-12T03:15:36;92785.81;;;7.24;100.00
21658;BME280;10990;48.174;9.782;2023-04-12T03:18:03;92789.44;;;7.10;100.00
21658;BME280;10990;48.174;9.782;2023-04-12T03:20:39;92768.63;;;7.22;100.00
21658;BME280;10990;48.174;9.782;2023-04-12T03:23:08;92770.84;;;7.18;100.00
21658;BME280;10990;48.174;9.782;2023-04-12T03:25:42;92768.81;;;7.07;100.00
21658;BME280;10990;48.174;9.782;2023-04-12T03:28:48;92753.44;;;7.17;100.00
21658;BME280;10990;48.174;9.782;2023-04-12T03:31:15;92744.94;;;7.08;100.00
21658;BME280;10990;48.174;9.782;2023-04-12T03:33:46;92737.06;;;7.02;100.00
21658;BME280;10990;48.174;9.782;2023-04-12T03:36:22;92721.28;;;7.08;100.00
21658;BME280;10990;48.174;9.782;2023-04-12T03:38:57;92714.00;;;7.04;100.00
21658;BME280;10990;48.174;9.782;2023-04-12T03:41:27;92702.91;;;7.08;100.00
21658;BME280;10990;48.174;9.782;2023-04-12T03:43:54;92697.03;;;7.06;100.00
21658;BME280;10990;48.174;9.782;2023-04-12T03:46:21;92695.81;;;7.09;100.00
21658;BME280;10990;48.174;9.782;2023-04-12T03:48:54;92682.28;;;7.18;100.00
21658;BME280;10990;48.174;9.782;2023-04-12T03:51:22;92682.69;;;7.15;100.00
21658;BME280;10990;48.174;9.782;2023-04-12T03:53:54;92693.81;;;7.04;100.00
21658;BME280;10990;48.174;9.782;2023-04-12T03:56:21;92693.41;;;6.94;100.00
21658;BME280;10990;48.174;9.782;2023-04-12T03:58:53;92669.75;;;7.07;100.00
21658;BME280;10990;48.174;9.782;2023-04-12T04:01:20;92662.47;;;6.96;100.00
21658;BME280;10990;48.174;9.782;2023-04-12T04:03:48;92640.22;;;7.12;100.00
21658;BME280;10990;48.174;9.782;2023-04-12T04:06:18;92631.94;;;7.15;100.00
21658;BME280;10990;48.174;9.782;2023-04-12T04:08:45;92649.94;;;6.91;100.00
21658;BME280;10990;48.174;9.782;2023-04-12T04:11:13;92641.03;;;6.92;100.00
21658;BME280;10990;48.174;9.782;2023-04-12T04:13:44;92625.06;;;7.01;100.00
21658;BME280;10990;48.174;9.782;2023-04-12T04:16:18;92630.16;;;6.82;100.00
21658;BME280;10990;48.174;9.782;2023-04-12T04:18:45;92609.75;;;6.84;100.00
21658;BME280;10990;48.174;9.782;2023-04-12T04:21:15;92600.44;;;6.88;100.00
21658;BME280;10990;48.174;9.782;2023-04-12T04:23:42;92575.38;;;6.99;100.00
21658;BME280;10990;48.174;9.782;2023-04-12T04:26:13;92567.28;;;7.01;100.00
21658;BME280;10990;48.174;9.782;2023-04-12T04:28:51;92556.56;;;7.15;100.00
21658;BME280;10990;48.174;9.782;2023-04-12T04:31:23;92556.56;;;7.09;100.00
21658;BME280;10990;48.174;9.782;2023-04-12T04:33:51;92548.88;;;7.14;100.00
21658;BME280;10990;48.174;9.782;2023-04-12T04:36:24;92538.78;;;7.11;100.00
21658;BME280;10990;48.174;9.782;2023-04-12T04:38:53;92528.25;;;7.17;100.00
21658;BME280;10990;48.174;9.782;2023-04-12T04:41:33;92526.03;;;7.21;100.00
21658;BME280;10990;48.174;9.782;2023-04-12T04:44:05;92535.16;;;6.99;100.00
21658;BME280;10990;48.174;9.782;2023-04-12T04:46:36;92512.94;;;6.94;100.00
21658;BME280;10990;48.174;9.782;2023-04-12T04:49:04;92519.81;;;6.89;100.00
21658;BME280;10990;48.174;9.782;2023-04-12T04:51:31;92496.56;;;6.92;100.00
21658;BME280;10990;48.174;9.782;2023-04-12T04:54:02;92477.38;;;6.92;100.00
21658;BME280;10990;48.174;9.782;2023-04-12T04:56:29;92463.44;;;6.91;100.00
21658;BME280;10990;48.174;9.782;2023-04-12T04:58:57;92459.63;;;6.87;100.00
21658;BME280;10990;48.174;9.782;2023-04-12T05:01:25;92454.59;;;6.66;100.00
21658;BME280;10990;48.174;9.782;2023-04-12T05:03:54;92424.28;;;6.70;100.00
21658;BME280;10990;48.174;9.782;2023-04-12T05:06:24;92401.66;;;6.76;100.00
21658;BME280;10990;48.174;9.782;2023-04-12T05:08:51;92386.69;;;6.83;100.00
21658;BME280;10990;48.174;9.782;2023-04-12T05:11:19;92367.84;;;6.92;100.00
21658;BME280;10990;48.174;9.782;2023-04-12T05:13:47;92342.75;;;7.03;100.00
21658;BME280;10990;48.174;9.782;2023-04-12T05:16:19;92342.19;;;6.94;100.00
21658;BME280;10990;48.174;9.782;2023-04-12T05:18:45;92341.19;;;6.95;100.00
21658;BME280;10990;48.174;9.782;2023-04-12T05:21:14;92332.28;;;6.96;100.00
21658;BME280;10990;48.174;9.782;2023-04-12T05:23:43;92320.56;;;6.99;100.00
21658;BME280;10990;48.174;9.782;2023-04-12T05:26:11;92311.22;;;7.10;100.00
21658;BME280;10990;48.174;9.782;2023-04-12T05:28:41;92298.25;;;7.08;100.00
21658;BME280;10990;48.174;9.782;2023-04-12T05:31:09;92300.59;;;7.23;100.00
21658;BME280;10990;48.174;9.782;2023-04-12T05:33:37;92304.72;;;7.12;100.00
21658;BME280;10990;48.174;9.782;2023-04-12T05:36:04;92309.19;;;7.05;100.00
21658;BME280;10990;48.174;9.782;2023-04-12T05:38:33;92309.16;;;7.12;100.00
21658;BME280;10990;48.174;9.782;2023-04-12T05:41:04;92290.75;;;7.12;100.00
21658;BME280;10990;48.174;9.782;2023-04-12T05:43:32;92276.50;;;7.26;100.00
21658;BME280;10990;48.174;9.782;2023-04-12T05:45:59;92280.78;;;7.21;100.00
21658;BME280;10990;48.174;9.782;2023-04-12T05:48:25;92280.97;;;7.26;100.00
21658;BME280;10990;48.174;9.782;2023-04-12T05:50:55;92273.63;;;7.34;100.00
21658;BME280;10990;48.174;9.782;2023-04-12T05:53:22;92272.03;;;7.33;100.00
21658;BME280;10990;48.174;9.782;2023-04-12T05:55:50;92267.31;;;7.42;100.00
21658;BME280;10990;48.174;9.782;2023-04-12T05:58:18;92271.41;;;7.38;100.00
21658;BME280;10990;48.174;9.782;2023-04-12T06:00:48;92279.28;;;7.38;100.00
21658;BME280;10990;48.174;9.782;2023-04-12T06:03:15;92268.88;;;7.50;100.00
21658;BME280;10990;48.174;9.782;2023-04-12T06:05:42;92293.31;;;7.25;100.00
21658;BME280;10990;48.174;9.782;2023-04-12T06:08:09;92278.53;;;7.31;100.00
21658;BME280;10990;48.174;9.782;2023-04-12T06:10:39;92265.47;;;7.49;100.00
21658;BME280;10990;48.174;9.782;2023-04-12T06:13:08;92274.03;;;7.38;100.00
21658;BME280;10990;48.174;9.782;2023-04-12T06:15:39;92269.47;;;7.52;100.00
21658;BME280;10990;48.174;9.782;2023-04-12T06:18:06;92262.34;;;7.59;100.00
21658;BME280;10990;48.174;9.782;2023-04-12T06:20:33;92255.03;;;7.61;100.00
21658;BME280;10990;48.174;9.782;2023-04-12T06:23:00;92260.34;;;7.54;100.00
21658;BME280;10990;48.174;9.782;2023-04-12T06:25:27;92250.31;;;7.70;100.00
21658;BME280;10990;48.174;9.782;2023-04-12T06:27:55;92246.59;;;7.77;100.00
21658;BME280;10990;48.174;9.782;2023-04-12T06:30:25;92245.56;;;7.78;100.00
21658;BME280;10990;48.174;9.782;2023-04-12T06:32:53;92261.44;;;7.72;100.00
21658;BME280;10990;48.174;9.782;2023-04-12T06:35:21;92256.69;;;7.80;100.00
21658;BME280;10990;48.174;9.782;2023-04-12T06:37:47;92261.84;;;7.69;100.00
21658;BME280;10990;48.174;9.782;2023-04-12T06:40:14;92249.81;;;7.79;100.00
21658;BME280;10990;48.174;9.782;2023-04-12T06:42:41;92254.09;;;7.74;100.00
21658;BME280;10990;48.174;9.782;2023-04-12T06:45:09;92242.31;;;7.83;100.00
21658;BME280;10990;48.174;9.782;2023-04-12T06:47:37;92233.59;;;7.82;100.00
21658;BME280;10990;48.174;9.782;2023-04-12T06:50:05;92216.28;;;7.93;100.00
21658;BME280;10990;48.174;9.782;2023-04-12T06:52:32;92224.97;;;7.94;100.00
21658;BME280;10990;48.174;9.782;2023-04-12T06:54:58;92227.31;;;7.83;100.00
21658;BME280;10990;48.174;9.782;2023-04-12T06:57:25;92216.28;;;7.93;100.00
21658;BME280;10990;48.174;9.782;2023-04-12T06:59:52;92216.72;;;7.90;100.00
21658;BME280;10990;48.174;9.782;2023-04-12T07:02:18;92220.44;;;7.82;100.00
21658;BME280;10990;48.174;9.782;2023-04-12T07:04:50;92209.94;;;8.01;100.00
21658;BME280;10990;48.174;9.782;2023-04-12T07:07:17;92214.16;;;8.02;100.00
21658;BME280;10990;48.174;9.782;2023-04-12T07:09:45;92209.28;;;8.05;100.00
21658;BME280;10990;48.174;9.782;2023-04-12T07:12:12;92211.03;;;8.12;100.00
21658;BME280;10990;48.174;9.782;2023-04-12T07:14:39;92189.19;;;8.11;100.00
21658;BME280;10990;48.174;9.782;2023-04-12T07:17:05;92194.22;;;8.13;100.00
21658;BME280;10990;48.174;9.782;2023-04-12T07:19:32;92189.84;;;8.06;100.00
21658;BME280;10990;48.174;9.782;2023-04-12T07:22:00;92178.84;;;7.91;100.00
21658;BME280;10990;48.174;9.782;2023-04-12T07:24:27;92148.84;;;8.17;100.00
21658;BME280;10990;48.174;9.782;2023-04-12T07:26:54;92150.50;;;8.12;100.00
21658;BME280;10990;48.174;9.782;2023-04-12T07:29:20;92145.47;;;8.10;100.00
21658;BME280;10990;48.174;9.782;2023-04-12T07:31:47;92134.34;;;8.08;100.00
21658;BME280;10990;48.174;9.782;2023-04-12T07:34:14;92120.50;;;8.31;100.00
21658;BME280;10990;48.174;9.782;2023-04-12T07:36:40;92127.09;;;8.22;100.00
21658;BME280;10990;48.174;9.782;2023-04-12T07:39:09;92136.47;;;8.18;100.00
21658;BME280;10990;48.174;9.782;2023-04-12T07:41:37;92127.50;;;8.37;100.00
21658;BME280;10990;48.174;9.782;2023-04-12T07:44:04;92120.28;;;8.32;100.00
21658;BME280;10990;48.174;9.782;2023-04-12T07:46:30;92117.94;;;8.43;100.00
21658;BME280;10990;48.174;9.782;2023-04-12T07:48:57;92113.31;;;8.57;100.00
21658;BME280;10990;48.174;9.782;2023-04-12T07:51:24;92116.63;;;8.64;100.00
21658;BME280;10990;48.174;9.782;2023-04-12T07:53:51;92112.09;;;8.83;100.00
21658;BME280;10990;48.174;9.782;2023-04-12T07:56:19;92126.66;;;8.85;100.00
21658;BME280;10990;48.174;9.782;2023-04-12T07:58:45;92116.38;;;8.95;100.00
21658;BME280;10990;48.174;9.782;2023-04-12T08:01:14;92125.56;;;9.05;100.00
21658;BME280;10990;48.174;9.782;2023-04-12T08:03:41;92134.59;;;9.20;100.00
21658;BME280;10990;48.174;9.782;2023-04-12T08:06:08;92137.38;;;9.26;100.00
21658;BME280;10990;48.174;9.782;2023-04-12T08:08:35;92165.94;;;9.40;100.00
21658;BME280;10990;48.174;9.782;2023-04-12T08:11:02;92161.94;;;9.61;100.00
21658;BME280;10990;48.174;9.782;2023-04-12T08:13:32;92168.91;;;9.79;100.00
21658;BME280;10990;48.174;9.782;2023-04-12T08:15:59;92178.44;;;9.80;100.00
21658;BME280;10990;48.174;9.782;2023-04-12T08:18:27;92183.59;;;9.99;100.00
21658;BME280;10990;48.174;9.782;2023-04-12T08:20:54;92212.16;;;10.02;100.00
21658;BME280;10990;48.174;9.782;2023-04-12T08:23:21;92198.81;;;10.32;100.00
21658;BME280;10990;48.174;9.782;2023-04-12T08:25:48;92227.75;;;10.39;100.00
21658;BME280;10990;48.174;9.782;2023-04-12T08:28:15;92264.03;;;10.20;100.00
21658;BME280;10990;48.174;9.782;2023-04-12T08:30:43;92266.22;;;10.46;100.00
21658;BME280;10990;48.174;9.782;2023-04-12T08:33:09;92277.19;;;10.67;100.00
21658;BME280;10990;48.174;9.782;2023-04-12T08:35:36;92286.94;;;10.90;100.00
21658;BME280;10990;48.174;9.782;2023-04-12T08:38:04;92305.28;;;10.96;100.00
21658;BME280;10990;48.174;9.782;2023-04-12T08:40:32;92331.03;;;11.01;100.00
21658;BME280;10990;48.174;9.782;2023-04-12T08:43:00;92351.44;;;11.17;100.00
21658;BME280;10990;48.174;9.782;2023-04-12T08:45:28;92383.16;;;11.29;100.00
21658;BME280;10990;48.174;9.782;2023-04-12T08:47:57;92401.56;;;11.93;100.00
21658;BME280;10990;48.174;9.782;2023-04-12T08:50:25;92449.59;;;11.97;100.00
21658;BME280;10990;48.174;9.782;2023-04-12T08:52:52;92521.53;;;11.82;100.00
21658;BME280;10990;48.174;9.782;2023-04-12T08:55:19;92558.59;;;11.94;100.00
21658;BME280;10990;48.174;9.782;2023-04-12T08:57:46;92562.16;;;11.99;100.00
21658;BME280;10990;48.174;9.782;2023-04-12T09:00:14;92587.00;;;12.79;100.00
21658;BME280;10990;48.174;9.782;2023-04-12T09:02:41;92637.31;;;13.53;100.00
21658;BME280;10990;48.174;9.782;2023-04-12T09:05:12;92700.00;;;13.88;100.00
21658;BME280;10990;48.174;9.782;2023-04-12T09:07:39;92840.53;;;13.73;100.00
21658;BME280;10990;48.174;9.782;2023-04-12T09:10:07;92941.06;;;13.29;100.00
21658;BME280;10990;48.174;9.782;2023-04-12T09:12:33;92991.34;;;12.88;100.00
21658;BME280;10990;48.174;9.782;2023-04-12T09:15:08;93005.81;;;13.04;100.00
21658;BME280;10990;48.174;9.782;2023-04-12T09:17:37;93054.97;;;13.18;100.00
21658;BME280;10990;48.174;9.782;2023-04-12T09:20:22;93071.00;;;13.23;100.00
21658;BME280;10990;48.174;9.782;2023-04-12T09:22:50;93103.19;;;13.15;100.00
21658;BME280;10990;48.174;9.782;2023-04-12T09:25:34;93103.34;;;12.90;100.00
21658;BME280;10990;48.174;9.782;2023-04-12T09:28:01;93116.94;;;12.82;100.00
21658;BME280;10990;48.174;9.782;2023-04-12T09:30:28;93124.47;;;12.97;100.00
21658;BME280;10990;48.174;9.782;2023-04-12T09:32:55;93151.19;;;12.84;100.00
21658;BME280;10990;48.174;9.782;2023-04-12T09:35:33;93195.28;;;12.48;100.00
21658;BME280;10990;48.174;9.782;2023-04-12T09:38:06;93252.06;;;12.59;100.00
21658;BME280;10990;48.174;9.782;2023-04-12T09:40:32;93247.56;;;12.77;100.00
21658;BME280;10990;48.174;9.782;2023-04-12T09:43:01;93243.22;;;12.65;100.00
21658;BME280;10990;48.174;9.782;2023-04-12T09:45:28;93293.91;;;12.56;100.00
21658;BME280;10990;48.174;9.782;2023-04-12T09:47:56;93309.59;;;12.76;100.00
21658;BME280;10990;48.174;9.782;2023-04-12T09:50:24;93341.19;;;12.60;100.00
21658;BME280;10990;48.174;9.782;2023-04-12T09:52:55;93322.34;;;12.86;100.00
21658;BME280;10990;48.174;9.782;2023-04-12T09:55:23;93346.66;;;12.83;100.00
21658;BME280;10990;48.174;9.782;2023-04-12T09:57:51;93363.28;;;12.72;100.00
21658;BME280;10990;48.174;9.782;2023-04-12T10:00:21;93383.06;;;12.76;100.00
21658;BME280;10990;48.174;9.782;2023-04-12T10:02:50;93383.78;;;12.65;100.00
21658;BME280;10990;48.174;9.782;2023-04-12T10:05:18;93396.47;;;12.81;100.00
21658;BME280;10990;48.174;9.782;2023-04-12T10:07:46;93399.13;;;12.99;100.00
21658;BME280;10990;48.174;9.782;2023-04-12T10:10:15;93404.88;;;12.96;100.00
21658;BME280;10990;48.174;9.782;2023-04-12T10:12:43;93394.94;;;13.10;100.00
21658;BME280;10990;48.174;9.782;2023-04-12T10:15:12;93426.72;;;13.17;100.00
21658;BME280;10990;48.174;9.782;2023-04-12T10:17:42;93439.56;;;12.95;100.00
21658;BME280;10990;48.174;9.782;2023-04-12T10:20:10;93420.19;;;12.94;100.00
21658;BME280;10990;48.174;9.782;2023-04-12T10:22:38;93401.19;;;12.79;100.00
21658;BME280;10990;48.174;9.782;2023-04-12T10:25:09;93389.31;;;13.00;100.00
21658;BME280;10990;48.174;9.782;2023-04-12T10:27:40;93376.53;;;13.15;100.00
21658;BME280;10990;48.174;9.782;2023-04-12T10:30:21;93403.75;;;13.29;100.00
21658;BME280;10990;48.174;9.782;2023-04-12T10:32:50;93429.53;;;13.22;100.00
21658;BME280;10990;48.174;9.782;2023-04-12T10:35:51;93445.44;;;13.22;100.00
21658;BME280;10990;48.174;9.782;2023-04-12T10:38:18;93440.53;;;13.00;100.00
21658;BME280;10990;48.174;9.782;2023-04-12T10:41:07;93434.59;;;12.87;100.00
21658;BME280;10990;48.174;9.782;2023-04-12T10:43:35;93387.72;;;12.99;100.00
21658;BME280;10990;48.174;9.782;2023-04-12T10:46:02;93398.69;;;12.84;100.00
21658;BME280;10990;48.174;9.782;2023-04-12T10:48:32;93386.28;;;12.78;100.00
21658;BME280;10990;48.174;9.782;2023-04-12T10:51:14;93422.31;;;12.86;100.00
21658;BME280;10990;48.174;9.782;2023-04-12T10:53:42;93467.31;;;12.99;100.00
21658;BME280;10990;48.174;9.782;2023-04-12T10:56:33;93499.78;;;13.19;100.00
21658;BME280;10990;48.174;9.782;2023-04-12T10:59:02;93558.59;;;13.16;100.00
21658;BME280;10990;48.174;9.782;2023-04-12T11:01:36;93587.34;;;13.26;100.00
21658;BME280;10990;48.174;9.782;2023-04-12T11:04:04;93670.94;;;13.10;100.00
21658;BME280;10990;48.174;9.782;2023-04-12T11:06:54;93722.75;;;12.74;100.00
21658;BME280;10990;48.174;9.782;2023-04-12T11:09:41;93740.75;;;12.66;100.00
21658;BME280;10990;48.174;9.782;2023-04-12T11:12:14;93717.50;;;12.61;100.00
21658;BME280;10990;48.174;9.782;2023-04-12T11:14:47;93730.97;;;12.60;100.00
21658;BME280;10990;48.174;9.782;2023-04-12T11:17:24;93702.03;;;12.51;100.00
21658;BME280;10990;48.174;9.782;2023-04-12T11:19:56;93635.56;;;12.46;100.00
21658;BME280;10990;48.174;9.782;2023-04-12T11:22:25;93575.44;;;12.78;100.00
21658;BME280;10990;48.174;9.782;2023-04-12T11:24:55;93585.63;;;12.75;100.00
21658;BME280;10990;48.174;9.782;2023-04-12T11:27:23;93598.91;;;12.75;100.00
21658;BME280;10990;48.174;9.782;2023-04-12T11:29:53;93608.41;;;12.89;100.00
21658;BME280;10990;48.174;9.782;2023-04-12T11:32:21;93633.53;;;12.87;100.00
21658;BME280;10990;48.174;9.782;2023-04-12T11:34:49;93639.72;;;13.06;100.00
21658;BME280;10990;48.174;9.782;2023-04-12T11:37:17;93651.84;;;12.95;100.00
21658;BME280;10990;48.174;9.782;2023-04-12T11:39:45;93700.34;;;13.09;100.00
21658;BME280;10990;48.174;9.782;2023-04-12T11:42:13;93692.66;;;12.94;100.00
21658;BME280;10990;48.174;9.782;2023-04-12T11:44:42;93647.38;;;13.20;100.00
21658;BME280;10990;48.174;9.782;2023-04-12T11:47:15;93681.56;;;13.10;100.00
21658;BME280;10990;48.174;9.782;2023-04-12T11:49:43;93675.19;;;13.18;100.00
21658;BME280;10990;48.174;9.782;2023-04-12T11:52:11;93708.22;;;13.60;100.00
21658;BME280;10990;48.174;9.782;2023-04-12T11:54:41;93724.09;;;13.67;100.00
21658;BME280;10990;48.174;9.782;2023-04-12T11:57:10;93776.72;;;13.52;100.00
21658;BME280;10990;48.174;9.782;2023-04-12T11:59:38;93813.78;;;13.20;100.00
21658;BME280;10990;48.174;9.782;2023-04-12T12:02:07;93825.84;;;13.22;100.00
21658;BME280;10990;48.174;9.782;2023-04-12T12:04:35;93829.09;;;13.24;100.00
21658;BME280;10990;48.174;9.782;2023-04-12T12:07:03;93833.97;;;13.41;100.00
21658;BME280;10990;48.174;9.782;2023-04-12T12:09:30;93842.59;;;13.68;100.00
21658;BME280;10990;48.174;9.782;2023-04-12T12:11:58;93867.72;;;13.65;100.00
21658;BME280;10990;48.174;9.782;2023-04-12T12:14:25;93902.88;;;13.67;100.00
21658;BME280;10990;48.174;9.782;2023-04-12T12:16:55;93907.28;;;13.87;100.00
21658;BME280;10990;48.174;9.782;2023-04-12T12:19:29;93926.25;;;13.90;100.00
21658;BME280;10990;48.174;9.782;2023-04-12T12:22:14;93916.53;;;14.41;100.00
21658;BME280;10990;48.174;9.782;2023-04-12T12:24:46;93969.91;;;14.46;100.00
21658;BME280;10990;48.174;9.782;2023-04-12T12:27:21;93972.75;;;14.51;100.00
21658;BME280;10990;48.174;9.782;2023-04-12T12:29:49;93980.88;;;14.63;100.00
21658;BME280;10990;48.174;9.782;2023-04-12T12:32:18;93982.69;;;14.94;100.00
21658;BME280;10990;48.174;9.782;2023-04-12T12:34:50;94021.91;;;15.06;100.00
21658;BME280;10990;48.174;9.782;2023-04-12T12:37:22;94036.88;;;15.07;100.00
21658;BME280;10990;48.174;9.782;2023-04-12T12:40:03;94040.06;;;15.15;100.00
21658;BME280;10990;48.174;9.782;2023-04-12T12:42:42;94062.53;;;14.94;100.00
21658;BME280;10990;48.174;9.782;2023-04-12T12:45:10;94084.19;;;14.73;100.00
21658;BME280;10990;48.174;9.782;2023-04-12T12:47:48;94102.06;;;14.59;100.00
21658;BME280;10990;48.174;9.782;2023-04-12T12:50:16;94121.28;;;14.61;100.00
21658;BME280;10990;48.174;9.782;2023-04-12T12:52:45;94116.81;;;14.55;100.00
21658;BME280;10990;48.174;9.782;2023-04-12T12:55:12;94108.09;;;14.79;100.00
21658;BME280;10990;48.174;9.782;2023-04-12T12:57:40;94122.00;;;14.82;100.00
21658;BME280;10990;48.174;9.782;2023-04-12T13:00:08;94130.00;;;14.75;100.00
21658;BME280;10990;48.174;9.782;2023-04-12T13:02:35;94137.22;;;14.68;100.00
21658;BME280;10990;48.174;9.782;2023-04-12T13:05:03;94127.69;;;14.53;100.00
21658;BME280;10990;48.174;9.782;2023-04-12T13:07:30;94135.31;;;14.82;100.00
21658;BME280;10990;48.174;9.782;2023-04-12T13:09:58;94152.19;;;14.62;100.00